createdAt,value
2023-05-09T00:02:14.039Z,102312.19
2023-05-09T00:04:40.588Z,102311.19
2023-05-09T00:07:07.418Z,102320.06
2023-05-09T00:09:33.790Z,102319.38
2023-05-09T00:12:00.133Z,102320.25
2023-05-09T00:14:27.663Z,102321.09
2023-05-09T00:16:54.906Z,102324.66
2023-05-09T00:19:21.410Z,102319.22
2023-05-09T00:21:47.803Z,102321.09
2023-05-09T00:24:14.180Z,102320.06
2023-05-09T00:26:42.362Z,102319.22
2023-05-09T00:29:08.813Z,102329.97
2023-05-09T00:31:35.231Z,102318.38
2023-05-09T00:34:42.563Z,102309.16
2023-05-09T00:37:08.944Z,102321.09
2023-05-09T00:39:35.286Z,102316.66
2023-05-09T00:42:01.734Z,102312.19
2023-05-09T00:44:28.114Z,102310.31
2023-05-09T00:46:54.653Z,102310.47
2023-05-09T00:49:21.012Z,102319.81
2023-05-09T00:51:47.872Z,102322.72
2023-05-09T00:54:14.378Z,102316.41
2023-05-09T00:56:41.147Z,102325.44
2023-05-09T00:59:07.578Z,102317.09
2023-05-09T01:01:34.009Z,102328.00
2023-05-09T01:04:00.563Z,102311.25
2023-05-09T01:06:29.643Z,102314.28
2023-05-09T01:09:03.596Z,102311.72
2023-05-09T01:11:48.864Z,102311.88
2023-05-09T01:14:24.774Z,102301.09
2023-05-09T01:17:00.794Z,102307.41
2023-05-09T01:19:36.426Z,102307.28
2023-05-09T01:22:05.907Z,102299.09
2023-05-09T01:24:39.941Z,102291.75
2023-05-09T01:27:25.465Z,102306.25
2023-05-09T01:29:55.618Z,102300.25
2023-05-09T01:32:25.964Z,102296.50
2023-05-09T01:34:54.510Z,102288.03
2023-05-09T01:37:23.876Z,102302.50
2023-05-09T01:39:53.252Z,102284.44
2023-05-09T01:42:21.015Z,102287.16
2023-05-09T01:44:49.028Z,102288.88
2023-05-09T01:47:16.618Z,102277.97
2023-05-09T01:49:44.299Z,102289.59
2023-05-09T01:52:13.005Z,102290.63
2023-05-09T01:54:40.230Z,102285.28
2023-05-09T01:57:07.591Z,102287.88
2023-05-09T01:59:34.731Z,102276.81
2023-05-09T02:02:03.347Z,102286.69
2023-05-09T02:04:30.623Z,102277.66
2023-05-09T02:06:57.464Z,102292.03
2023-05-09T02:09:24.035Z,102279.38
2023-05-09T02:11:50.405Z,102277.50
2023-05-09T02:14:17.537Z,102276.50
2023-05-09T02:16:44.060Z,102274.63
2023-05-09T02:19:10.542Z,102273.59
2023-05-09T02:21:37.091Z,102280.94
2023-05-09T02:24:03.690Z,102279.06
2023-05-09T02:26:30.704Z,102290.84
2023-05-09T02:28:57.643Z,102282.66
2023-05-09T02:31:25.854Z,102284.53
2023-05-09T02:33:53.466Z,102287.09
2023-05-09T02:36:20.928Z,102289.97
2023-05-09T02:38:47.492Z,102290.84
2023-05-09T02:41:14.393Z,102284.53
2023-05-09T02:43:41.000Z,102283.50
2023-05-09T02:46:07.881Z,102283.50
2023-05-09T02:48:34.729Z,102281.78
2023-05-09T02:51:01.294Z,102284.69
2023-05-09T02:53:27.613Z,102281.09
2023-05-09T02:55:54.063Z,102283.97
2023-05-09T02:58:20.821Z,102286.69
2023-05-09T03:00:47.146Z,102288.56
2023-05-09T03:03:13.720Z,102287.56
2023-05-09T03:05:40.175Z,102285.69
2023-05-09T03:08:06.628Z,102287.56
2023-05-09T03:10:32.981Z,102289.28
2023-05-09T03:12:59.315Z,102289.28
2023-05-09T03:15:25.678Z,102288.41
2023-05-09T03:17:52.130Z,102287.41
2023-05-09T03:20:18.867Z,102284.81
2023-05-09T03:22:45.339Z,102282.94
2023-05-09T03:25:11.820Z,102287.41
2023-05-09T03:27:38.494Z,102285.69
2023-05-09T03:30:05.144Z,102280.38
2023-05-09T03:32:31.601Z,102280.38
2023-05-09T03:34:58.022Z,102274.94
2023-05-09T03:37:26.251Z,102277.50
2023-05-09T03:39:53.461Z,102283.84
2023-05-09T03:42:19.928Z,102274.75
2023-05-09T03:44:46.581Z,102284.53
2023-05-09T03:47:12.958Z,102276.34
2023-05-09T03:49:39.403Z,102276.34
2023-05-09T03:52:05.796Z,102272.59
2023-05-09T03:54:32.242Z,102276.16
2023-05-09T03:56:58.678Z,102277.06
2023-05-09T03:59:25.075Z,102271.75
2023-05-09T04:01:51.516Z,102269.00
2023-05-09T04:04:18.092Z,102271.75
2023-05-09T04:06:44.538Z,102274.47
2023-05-09T04:09:11.018Z,102277.19
2023-05-09T04:11:37.460Z,102269.19
2023-05-09T04:14:07.118Z,102262.00
2023-05-09T04:16:33.778Z,102264.75
2023-05-09T04:19:00.268Z,102266.59
2023-05-09T04:21:26.716Z,102271.19
2023-05-09T04:23:53.475Z,102267.59
2023-05-09T04:26:22.569Z,102269.31
2023-05-09T04:28:49.061Z,102267.31
2023-05-09T04:31:15.698Z,102256.56
2023-05-09T04:33:42.197Z,102253.84
2023-05-09T04:36:09.172Z,102250.22
2023-05-09T04:38:35.509Z,102259.13
2023-05-09T04:41:01.845Z,102267.31
2023-05-09T04:43:28.379Z,102265.72
2023-05-09T04:45:54.794Z,102254.13
2023-05-09T04:48:21.128Z,102261.28
2023-05-09T04:50:48.555Z,102259.41
2023-05-09T04:53:15.234Z,102260.28
2023-05-09T04:55:41.873Z,102253.28
2023-05-09T04:58:09.102Z,102255.16
2023-05-09T05:00:35.756Z,102253.59
2023-05-09T05:03:02.214Z,102261.59
2023-05-09T05:05:28.665Z,102248.13
2023-05-09T05:07:55.480Z,102250.84
2023-05-09T05:10:21.808Z,102250.84
2023-05-09T05:12:48.183Z,102254.59
2023-05-09T05:15:14.869Z,102253.75
2023-05-09T05:17:41.511Z,102251.88
2023-05-09T05:20:10.433Z,102244.53
2023-05-09T05:22:36.917Z,102247.28
2023-05-09T05:25:04.506Z,102241.94
2023-05-09T05:27:31.291Z,102232.91
2023-05-09T05:29:57.752Z,102237.53
2023-05-09T05:32:24.201Z,102244.00
2023-05-09T05:34:50.551Z,102244.00
2023-05-09T05:37:16.949Z,102241.44
2023-05-09T05:39:43.291Z,102245.88
2023-05-09T05:42:09.774Z,102241.28
2023-05-09T05:44:36.185Z,102246.03
2023-05-09T05:47:02.552Z,102249.72
2023-05-09T05:49:28.878Z,102250.56
2023-05-09T05:51:55.192Z,102239.56
2023-05-09T05:54:21.499Z,102235.81
2023-05-09T05:56:47.915Z,102242.13
2023-05-09T05:59:14.347Z,102251.88
2023-05-09T06:01:40.857Z,102251.03
2023-05-09T06:04:07.492Z,102232.91
2023-05-09T06:06:34.246Z,102235.50
2023-05-09T06:09:00.644Z,102238.63
2023-05-09T06:11:27.007Z,102240.19
2023-05-09T06:13:53.423Z,102231.53
2023-05-09T06:16:21.339Z,102231.06
2023-05-09T06:18:48.030Z,102223.56
2023-05-09T06:21:14.403Z,102218.81
2023-05-09T06:23:47.578Z,102221.22
2023-05-09T06:26:27.331Z,102218.66
2023-05-09T06:28:53.659Z,102219.50
2023-05-09T06:31:20.143Z,102219.38
2023-05-09T06:33:46.603Z,102211.00
2023-05-09T06:36:12.992Z,102208.28
2023-05-09T06:38:39.398Z,102202.81
2023-05-09T06:41:05.920Z,102195.50
2023-05-09T06:43:32.388Z,102190.88
2023-05-09T06:45:59.106Z,102189.72
2023-05-09T06:48:25.673Z,102194.88
2023-05-09T06:50:51.999Z,102178.34
2023-05-09T06:53:18.414Z,102179.00
2023-05-09T06:55:44.983Z,102172.88
2023-05-09T06:58:12.081Z,102170.16
2023-05-09T07:00:38.609Z,102172.56
2023-05-09T07:03:07.409Z,102166.41
2023-05-09T07:05:34.172Z,102164.22
2023-05-09T07:08:00.711Z,102161.47
2023-05-09T07:10:27.295Z,102163.91
2023-05-09T07:12:53.800Z,102158.44
2023-05-09T07:15:32.516Z,102165.59
2023-05-09T07:18:06.527Z,102172.09
2023-05-09T07:20:32.985Z,102168.50
2023-05-09T07:22:59.536Z,102151.25
2023-05-09T07:25:26.062Z,102151.78
2023-05-09T07:27:52.798Z,102146.00
2023-05-09T07:30:19.241Z,102136.66
2023-05-09T07:32:45.813Z,102140.78
2023-05-09T07:35:12.577Z,102131.38
2023-05-09T07:37:39.182Z,102105.28
2023-05-09T07:40:06.170Z,102115.69
2023-05-09T07:42:33.216Z,102116.00
2023-05-09T07:45:00.297Z,102104.41
2023-05-09T07:47:26.684Z,102112.91
2023-05-09T07:49:53.087Z,102099.56
2023-05-09T07:52:19.469Z,102091.69
2023-05-09T07:54:45.878Z,102088.47
2023-05-09T07:57:12.262Z,102088.59
2023-05-09T07:59:38.727Z,102081.13
2023-05-09T08:02:05.222Z,102102.41
2023-05-09T08:04:31.721Z,102077.84
2023-05-09T08:06:59.461Z,102065.91
2023-05-09T08:09:26.601Z,102077.00
2023-05-09T08:11:53.069Z,102075.97
2023-05-09T08:14:19.526Z,102101.03
2023-05-09T08:16:45.859Z,102070.00
2023-05-09T08:19:12.203Z,102071.69
2023-05-09T08:21:38.674Z,102066.94
2023-05-09T08:24:07.901Z,102064.91
2023-05-09T08:26:34.957Z,102041.06
2023-05-09T08:29:01.603Z,102045.31
2023-05-09T08:31:28.081Z,102036.28
2023-05-09T08:33:54.484Z,102052.50
2023-05-09T08:36:20.932Z,102032.38
2023-05-09T08:38:47.288Z,102029.66
2023-05-09T08:41:13.717Z,102030.31
2023-05-09T08:43:40.461Z,102035.47
2023-05-09T08:46:08.386Z,102010.91
2023-05-09T08:48:37.811Z,102009.03
2023-05-09T08:51:07.454Z,102056.25
2023-05-09T08:53:34.534Z,102039.75
2023-05-09T08:56:03.755Z,102017.22
2023-05-09T08:58:31.187Z,102011.75
2023-05-09T09:00:58.469Z,102002.53
2023-05-09T09:03:27.688Z,102013.44
2023-05-09T09:05:55.055Z,102026.09
2023-05-09T09:08:23.153Z,101998.09
2023-05-09T09:10:49.671Z,102004.41
2023-05-09T09:13:17.511Z,101986.88
2023-05-09T09:15:45.364Z,102010.25
2023-05-09T09:18:12.869Z,102006.50
2023-05-09T09:20:46.590Z,102002.91
2023-05-09T09:23:17.877Z,101997.28
2023-05-09T09:25:45.725Z,101989.09
2023-05-09T09:28:12.647Z,101994.56
2023-05-09T09:30:47.673Z,101982.78
2023-05-09T09:33:21.414Z,101982.59
2023-05-09T09:35:48.659Z,101971.69
2023-05-09T09:38:15.044Z,101981.75
2023-05-09T09:40:48.053Z,101973.56
2023-05-09T09:43:14.433Z,101983.47
2023-05-09T09:45:42.003Z,101957.06
2023-05-09T09:48:08.525Z,101961.47
2023-05-09T09:50:35.016Z,101966.09
2023-05-09T09:53:01.338Z,101978.72
2023-05-09T09:55:29.074Z,101955.84
2023-05-09T09:57:55.519Z,101955.84
2023-05-09T10:00:26.382Z,101952.09
2023-05-09T10:02:52.857Z,101950.38
2023-05-09T10:05:23.467Z,101945.78
2023-05-09T10:07:50.596Z,101939.31
2023-05-09T10:10:17.273Z,101939.13
2023-05-09T10:12:44.513Z,101936.41
2023-05-09T10:15:12.332Z,101937.09
2023-05-09T10:17:38.968Z,101955.19
2023-05-09T10:20:06.017Z,101952.47
2023-05-09T10:22:33.297Z,101930.44
2023-05-09T10:25:04.975Z,101912.38
2023-05-09T10:27:35.075Z,101922.06
2023-05-09T10:30:01.391Z,101913.03
2023-05-09T10:32:30.867Z,101910.31
2023-05-09T10:35:02.027Z,101930.28
2023-05-09T10:37:28.606Z,101930.28
2023-05-09T10:39:55.646Z,101919.34
2023-05-09T10:42:23.797Z,101909.28
2023-05-09T10:44:51.085Z,101901.09
2023-05-09T10:47:17.871Z,101897.38
2023-05-09T10:49:44.743Z,101892.75
2023-05-09T10:52:11.796Z,101898.34
2023-05-09T10:54:38.285Z,101897.38
2023-05-09T10:57:06.377Z,101888.13
2023-05-09T10:59:43.077Z,101886.25
2023-05-09T11:02:19.126Z,101875.34
2023-05-09T11:04:45.638Z,101875.34
2023-05-09T11:07:27.498Z,101865.28
2023-05-09T11:10:07.585Z,101869.88
2023-05-09T11:12:34.013Z,101876.38
2023-05-09T11:15:07.627Z,101861.69
2023-05-09T11:17:37.757Z,101847.19
2023-05-09T11:20:05.815Z,101866.97
2023-05-09T11:22:39.584Z,101864.25
2023-05-09T11:25:07.715Z,101853.50
2023-05-09T11:27:42.550Z,101833.53
2023-05-09T11:30:10.302Z,101830.81
2023-05-09T11:32:55.750Z,101826.19
2023-05-09T11:35:23.291Z,101829.97
2023-05-09T11:37:51.263Z,101808.97
2023-05-09T11:40:20.955Z,101816.13
2023-05-09T11:42:50.049Z,101807.94
2023-05-09T11:45:17.223Z,101815.97
2023-05-09T11:47:45.092Z,101808.78
2023-05-09T11:50:12.672Z,101805.22
2023-05-09T11:52:39.755Z,101801.63
2023-05-09T11:55:07.216Z,101798.72
2023-05-09T11:57:33.659Z,101788.84
2023-05-09T12:00:01.271Z,101777.91
2023-05-09T12:02:28.580Z,101777.06
2023-05-09T12:04:55.046Z,101776.03
2023-05-09T12:07:21.538Z,101761.53
2023-05-09T12:09:49.394Z,101760.50
2023-05-09T12:12:20.712Z,101755.91
2023-05-09T12:14:48.436Z,101748.72
2023-05-09T12:17:14.787Z,101738.66
2023-05-09T12:19:41.117Z,101752.31
2023-05-09T12:22:07.669Z,101738.66
2023-05-09T12:24:35.496Z,101730.47
2023-05-09T12:27:02.212Z,101719.56
2023-05-09T12:29:30.677Z,101726.88
2023-05-09T12:31:57.932Z,101723.16
2023-05-09T12:34:24.554Z,101717.69
2023-05-09T12:36:51.697Z,101728.63
2023-05-09T12:39:19.414Z,101715.81
2023-05-09T12:41:57.462Z,101709.50
2023-05-09T12:44:29.534Z,101704.06
2023-05-09T12:46:56.381Z,101714.09
2023-05-09T12:49:23.642Z,101681.31
2023-05-09T12:51:50.684Z,101694.13
2023-05-09T12:54:24.071Z,101686.78
2023-05-09T12:56:53.875Z,101691.41
2023-05-09T12:59:21.070Z,101674.16
2023-05-09T13:01:51.533Z,101682.38
2023-05-09T13:04:19.883Z,101662.41
2023-05-09T13:06:50.879Z,101677.94
2023-05-09T13:09:18.153Z,101662.59
2023-05-09T13:11:45.222Z,101646.03
2023-05-09T13:14:11.803Z,101637.00
2023-05-09T13:16:38.274Z,101656.09
2023-05-09T13:19:05.408Z,101658.81
2023-05-09T13:21:32.271Z,101665.31
2023-05-09T13:23:58.655Z,101640.75
2023-05-09T13:26:25.961Z,101642.44
2023-05-09T13:28:52.402Z,101655.25
2023-05-09T13:31:19.027Z,101642.44
2023-05-09T13:33:45.429Z,101630.69
2023-05-09T13:36:11.859Z,101620.78
2023-05-09T13:38:40.593Z,101619.75
2023-05-09T13:41:07.348Z,101607.16
2023-05-09T13:43:34.118Z,101603.53
2023-05-09T13:46:00.498Z,101599.97
2023-05-09T13:48:26.953Z,101604.41
2023-05-09T13:50:53.536Z,101606.28
2023-05-09T13:53:19.933Z,101591.78
2023-05-09T13:55:46.410Z,101582.75
2023-05-09T13:58:12.834Z,101577.13
2023-05-09T14:00:39.249Z,101588.88
2023-05-09T14:03:05.852Z,101588.88
2023-05-09T14:05:32.464Z,101589.88
2023-05-09T14:07:58.872Z,101586.31
2023-05-09T14:10:27.163Z,101571.66
2023-05-09T14:12:54.090Z,101566.19
2023-05-09T14:15:20.571Z,101563.63
2023-05-09T14:17:47.056Z,101553.41
2023-05-09T14:20:15.787Z,101569.78
2023-05-09T14:22:42.687Z,101562.44
2023-05-09T14:25:09.107Z,101549.81
2023-05-09T14:27:38.639Z,101551.88
2023-05-09T14:30:05.229Z,101550.81
2023-05-09T14:32:31.722Z,101543.47
2023-05-09T14:34:58.103Z,101530.03
2023-05-09T14:37:24.540Z,101525.41
2023-05-09T14:39:51.038Z,101521.00
2023-05-09T14:42:17.602Z,101526.25
2023-05-09T14:44:45.342Z,101525.25
2023-05-09T14:47:12.168Z,101529.84
2023-05-09T14:49:41.872Z,101525.25
2023-05-09T14:52:11.068Z,101508.69
2023-05-09T14:54:37.491Z,101501.34
2023-05-09T14:57:05.310Z,101501.53
2023-05-09T14:59:32.117Z,101492.66
2023-05-09T15:01:58.819Z,101507.34
2023-05-09T15:04:28.437Z,101503.78
2023-05-09T15:06:54.932Z,101496.63
2023-05-09T15:09:21.514Z,101495.78
2023-05-09T15:11:49.140Z,101485.00
2023-05-09T15:14:16.784Z,101477.66
2023-05-09T15:16:43.640Z,101464.22
2023-05-09T15:19:10.270Z,101460.63
2023-05-09T15:21:36.697Z,101459.78
2023-05-09T15:24:03.620Z,101480.78
2023-05-09T15:26:30.282Z,101462.50
2023-05-09T15:28:56.620Z,101465.25
2023-05-09T15:31:24.061Z,101478.03
2023-05-09T15:33:50.604Z,101470.00
2023-05-09T15:36:16.993Z,101470.00
2023-05-09T15:38:44.329Z,101459.09
2023-05-09T15:41:10.761Z,101448.19
2023-05-09T15:43:37.161Z,101446.50
2023-05-09T15:46:03.768Z,101452.78
2023-05-09T15:48:30.641Z,101443.75
2023-05-09T15:50:57.026Z,101458.25
2023-05-09T15:53:23.367Z,101439.34
2023-05-09T15:55:50.038Z,101434.88
2023-05-09T15:58:16.496Z,101421.09
2023-05-09T16:00:42.959Z,101427.56
2023-05-09T16:03:09.450Z,101433.03
2023-05-09T16:05:35.908Z,101415.78
2023-05-09T16:08:02.399Z,101424.84
2023-05-09T16:10:28.845Z,101422.13
2023-05-09T16:12:55.241Z,101420.22
2023-05-09T16:15:21.680Z,101411.19
2023-05-09T16:17:48.086Z,101415.78
2023-05-09T16:20:15.090Z,101415.13
2023-05-09T16:22:41.981Z,101395.84
2023-05-09T16:25:08.483Z,101403.16
2023-05-09T16:27:34.987Z,101406.94
2023-05-09T16:30:01.482Z,101396.03
2023-05-09T16:32:27.846Z,101393.09
2023-05-09T16:34:54.340Z,101398.56
2023-05-09T16:37:20.809Z,101387.84
2023-05-09T16:39:47.287Z,101387.84
2023-05-09T16:42:13.644Z,101385.09
2023-05-09T16:44:40.090Z,101377.13
2023-05-09T16:47:06.912Z,101387.16
2023-05-09T16:49:33.375Z,101385.47
2023-05-09T16:51:59.900Z,101391.94
2023-05-09T16:54:26.280Z,101399.94
2023-05-09T16:56:52.617Z,101394.50
2023-05-09T16:59:20.072Z,101390.91
2023-05-09T17:01:47.615Z,101408.97
2023-05-09T17:04:14.646Z,101400.78
2023-05-09T17:06:41.080Z,101390.75
2023-05-09T17:09:07.680Z,101386.69
2023-05-09T17:11:34.082Z,101381.22
2023-05-09T17:14:01.750Z,101385.66
2023-05-09T17:16:28.153Z,101389.22
2023-05-09T17:18:54.588Z,101382.06
2023-05-09T17:21:21.566Z,101379.34
2023-05-09T17:23:47.891Z,101373.88
2023-05-09T17:26:14.333Z,101371.16
2023-05-09T17:28:40.733Z,101363.81
2023-05-09T17:31:07.441Z,101368.44
2023-05-09T17:33:34.044Z,101369.44
2023-05-09T17:36:00.504Z,101368.44
2023-05-09T17:38:26.948Z,101368.44
2023-05-09T17:40:53.619Z,101371.16
2023-05-09T17:43:21.710Z,101375.94
2023-05-09T17:45:48.110Z,101373.19
2023-05-09T17:48:14.663Z,101373.88
2023-05-09T17:50:41.051Z,101366.72
2023-05-09T17:53:09.370Z,101361.09
2023-05-09T17:55:36.020Z,101376.44
2023-05-09T17:58:02.428Z,101364.66
2023-05-09T18:00:29.290Z,101361.94
2023-05-09T18:02:57.243Z,101364.47
2023-05-09T18:05:26.083Z,101357.13
2023-05-09T18:07:53.452Z,101357.31
2023-05-09T18:10:20.285Z,101362.78
2023-05-09T18:12:47.406Z,101361.59
2023-05-09T18:15:13.994Z,101355.28
2023-05-09T18:17:40.457Z,101353.56
2023-05-09T18:20:07.512Z,101354.59
2023-05-09T18:22:33.867Z,101359.00
2023-05-09T18:25:00.293Z,101351.03
2023-05-09T18:27:27.218Z,101352.91
2023-05-09T18:29:53.591Z,101348.28
2023-05-09T18:32:20.716Z,101349.97
2023-05-09T18:34:48.431Z,101344.53
2023-05-09T18:37:14.972Z,101348.09
2023-05-09T18:39:41.398Z,101351.69
2023-05-09T18:42:07.864Z,101343.69
2023-05-09T18:44:34.809Z,101349.34
2023-05-09T18:47:01.275Z,101352.06
2023-05-09T18:49:27.803Z,101351.22
2023-05-09T18:51:54.912Z,101349.34
2023-05-09T18:54:21.401Z,101357.50
2023-05-09T18:56:47.726Z,101352.06
2023-05-09T18:59:16.390Z,101355.78
2023-05-09T19:01:44.004Z,101344.72
2023-05-09T19:04:10.480Z,101349.13
2023-05-09T19:06:36.955Z,101351.03
2023-05-09T19:09:04.663Z,101353.06
2023-05-09T19:11:31.214Z,101349.34
2023-05-09T19:13:57.755Z,101356.66
2023-05-09T19:16:26.387Z,101343.03
2023-05-09T19:18:56.382Z,101345.75
2023-05-09T19:21:22.862Z,101342.34
2023-05-09T19:23:49.472Z,101339.41
2023-05-09T19:26:16.369Z,101345.38
2023-05-09T19:28:43.241Z,101340.25
2023-05-09T19:31:09.809Z,101333.75
2023-05-09T19:33:36.195Z,101337.50
2023-05-09T19:36:02.666Z,101337.69
2023-05-09T19:38:29.729Z,101342.28
2023-05-09T19:40:56.442Z,101330.53
2023-05-09T19:43:22.941Z,101326.13
2023-05-09T19:45:49.338Z,101333.44
2023-05-09T19:48:15.742Z,101334.28
2023-05-09T19:50:42.694Z,101330.88
2023-05-09T19:53:09.080Z,101330.72
2023-05-09T19:55:35.549Z,101329.00
2023-05-09T19:58:01.917Z,101325.25
2023-05-09T20:00:28.416Z,101328.16
2023-05-09T20:02:55.213Z,101326.66
2023-05-09T20:05:21.709Z,101310.44
2023-05-09T20:07:48.168Z,101315.75
2023-05-09T20:10:15.584Z,101313.84
2023-05-09T20:12:42.161Z,101315.06
2023-05-09T20:15:08.718Z,101317.97
2023-05-09T20:17:35.188Z,101327.16
2023-05-09T20:20:01.659Z,101325.13
2023-05-09T20:22:28.023Z,101320.03
2023-05-09T20:24:54.333Z,101309.66
2023-05-09T20:27:22.007Z,101311.19
2023-05-09T20:29:48.350Z,101305.88
2023-05-09T20:32:14.832Z,101311.19
2023-05-09T20:34:41.186Z,101316.78
2023-05-09T20:37:07.872Z,101310.88
2023-05-09T20:39:34.265Z,101301.81
2023-05-09T20:42:02.445Z,101309.53
2023-05-09T20:44:29.149Z,101307.81
2023-05-09T20:46:55.576Z,101294.88
2023-05-09T20:49:22.779Z,101292.13
2023-05-09T20:51:49.296Z,101292.97
2023-05-09T20:54:16.878Z,101290.25
2023-05-09T20:56:43.296Z,101285.44
2023-05-09T20:59:09.656Z,101283.94
2023-05-09T21:01:36.704Z,101285.84
2023-05-09T21:04:05.518Z,101278.50
2023-05-09T21:06:33.188Z,101282.25
2023-05-09T21:08:59.654Z,101273.41
2023-05-09T21:11:26.016Z,101277.81
2023-05-09T21:13:52.368Z,101276.13
2023-05-09T21:16:18.942Z,101280.25
2023-05-09T21:18:45.349Z,101268.47
2023-05-09T21:21:11.877Z,101273.25
2023-05-09T21:23:38.336Z,101270.91
2023-05-09T21:26:04.745Z,101271.25
2023-05-09T21:28:31.445Z,101262.03
2023-05-09T21:30:59.955Z,101251.81
2023-05-09T21:33:26.424Z,101259.16
2023-05-09T21:35:52.748Z,101252.16
2023-05-09T21:38:19.072Z,101246.06
2023-05-09T21:40:45.577Z,101243.84
2023-05-09T21:43:11.980Z,101248.47
2023-05-09T21:45:38.393Z,101245.09
2023-05-09T21:48:04.998Z,101244.22
2023-05-09T21:50:31.486Z,101242.69
2023-05-09T21:52:57.895Z,101239.31
2023-05-09T21:55:24.297Z,101238.28
2023-05-09T21:57:50.739Z,101237.25
2023-05-09T22:00:17.469Z,101233.69
2023-05-09T22:02:44.259Z,101232.47
2023-05-09T22:05:11.170Z,101233.97
2023-05-09T22:07:37.955Z,101235.16
2023-05-09T22:10:05.299Z,101225.38
2023-05-09T22:12:31.734Z,101221.81
2023-05-09T22:14:58.083Z,101232.88
2023-05-09T22:17:24.607Z,101232.44
2023-05-09T22:19:51.243Z,101226.28
2023-05-09T22:22:17.624Z,101230.91
2023-05-09T22:24:43.975Z,101220.84
2023-05-09T22:27:10.964Z,101228.19
2023-05-09T22:29:37.401Z,101222.22
2023-05-09T22:32:04.034Z,101222.41
2023-05-09T22:34:31.066Z,101227.03
2023-05-09T22:36:57.465Z,101223.44
2023-05-09T22:39:24.135Z,101231.16
2023-05-09T22:41:50.635Z,101217.66
2023-05-09T22:44:17.017Z,101221.09
2023-05-09T22:46:43.375Z,101219.19
2023-05-09T22:49:09.795Z,101209.34
2023-05-09T22:51:36.452Z,101214.09
2023-05-09T22:54:02.841Z,101211.56
2023-05-09T22:56:29.295Z,101208.13
2023-05-09T22:58:55.731Z,101207.16
2023-05-09T23:01:22.158Z,101200.78
2023-05-09T23:03:48.534Z,101208.84
2023-05-09T23:06:14.912Z,101199.28
2023-05-09T23:08:41.441Z,101205.56
2023-05-09T23:11:07.800Z,101205.72
2023-05-09T23:13:34.204Z,101195.22
2023-05-09T23:16:00.658Z,101200.97
2023-05-09T23:18:28.038Z,101194.13
2023-05-09T23:20:54.380Z,101196.00
2023-05-09T23:23:20.730Z,101196.16
2023-05-09T23:25:47.080Z,101198.03
2023-05-09T23:28:13.479Z,101198.03
2023-05-09T23:30:39.875Z,101207.06
2023-05-09T23:33:06.304Z,101194.31
2023-05-09T23:35:33.058Z,101197.88
2023-05-09T23:37:59.455Z,101196.66
2023-05-09T23:40:25.840Z,101201.25
2023-05-09T23:42:52.233Z,101208.78
2023-05-09T23:45:18.696Z,101192.44
2023-05-09T23:47:45.221Z,101193.28
2023-05-09T23:50:12.333Z,101193.44
2023-05-09T23:52:38.780Z,101193.28
2023-05-09T23:55:05.435Z,101193.06
2023-05-09T23:57:31.858Z,101190.34
2023-05-09T23:59:58.200Z,101188.31
